createdAt,value
2019-05-25T00:00:07.570Z,0.93
2019-05-25T00:15:07.765Z,0.94
2019-05-25T00:30:09.152Z,0.89
2019-05-25T00:45:01.607Z,0.87
2019-05-25T01:00:02.064Z,0.8
2019-05-25T01:15:01.950Z,0.88
2019-05-25T01:30:01.401Z,0.9
2019-05-25T01:45:01.868Z,0.95
2019-05-25T02:00:01.300Z,0.83
2019-05-25T02:15:01.765Z,0.82
2019-05-25T02:30:01.682Z,0.94
2019-05-25T02:45:01.527Z,0.83
2019-05-25T03:00:01.983Z,0.86
2019-05-25T03:15:01.494Z,0.87
2019-05-25T03:30:02.235Z,0.95
2019-05-25T03:45:01.749Z,1
2019-05-25T04:00:02.196Z,0.87
2019-05-25T04:15:01.658Z,0.8
2019-05-25T04:30:02.349Z,0.92
2019-05-25T04:45:01.789Z,0.99
2019-05-25T05:00:02.207Z,0.83
2019-05-25T05:15:01.667Z,0.88
2019-05-25T05:30:02.082Z,1.01
2019-05-25T05:45:01.516Z,0.98
2019-05-25T06:00:01.963Z,0.94
2019-05-25T06:15:01.386Z,0.85
2019-05-25T06:30:01.815Z,0.92
2019-05-25T06:45:01.209Z,0.99
2019-05-25T07:00:01.606Z,0.93
2019-05-25T07:15:02.122Z,1.02
2019-05-25T07:30:01.573Z,0.97
2019-05-25T07:45:02.037Z,1.08
2019-05-25T08:00:01.438Z,1.16
2019-05-25T08:15:01.875Z,1.25
2019-05-25T08:30:01.327Z,1.41
2019-05-25T08:45:01.746Z,2
2019-05-25T09:00:02.362Z,2.02
2019-05-25T09:15:05.244Z,1.63
2019-05-25T09:30:01.447Z,1.63
2019-05-25T09:45:01.931Z,1.71
2019-05-25T10:00:01.370Z,1.65
2019-05-25T10:15:02.278Z,1.35
2019-05-25T10:30:01.654Z,1.23
2019-05-25T10:45:02.095Z,1.12
2019-05-25T11:00:01.541Z,1.11
2019-05-25T11:15:01.964Z,1.24
2019-05-25T11:30:08.790Z,1.35
2019-05-25T11:45:01.590Z,1.41
2019-05-25T12:00:01.512Z,1.63
2019-05-25T12:15:01.948Z,1.66
2019-05-25T12:30:01.304Z,1.49
2019-05-25T12:45:01.707Z,1.49
2019-05-25T13:00:14.576Z,1.35
2019-05-25T13:15:01.830Z,1.65
2019-05-25T13:30:03.159Z,1.44
2019-05-25T13:45:02.004Z,1.18
2019-05-25T14:00:01.423Z,1.47
2019-05-25T14:15:02.131Z,1.23
2019-05-25T14:30:02.065Z,1.28
2019-05-25T14:45:01.624Z,1.3
2019-05-25T15:00:02.075Z,1.35
2019-05-25T15:15:01.514Z,1.24
2019-05-25T15:30:01.922Z,1.21
2019-05-25T15:45:01.349Z,1.22
2019-05-25T16:00:01.873Z,0.98
2019-05-25T16:15:01.390Z,1.02
2019-05-25T16:30:01.823Z,0.99
2019-05-25T16:45:05.176Z,1.42
2019-05-25T17:00:01.326Z,1.32
2019-05-25T17:15:01.728Z,1.46
2019-05-25T17:30:02.126Z,1.34
2019-05-25T17:45:01.566Z,1.36
2019-05-25T18:00:02.008Z,1.36
2019-05-25T18:15:01.417Z,1.24
2019-05-25T18:30:01.798Z,1.21
2019-05-25T18:45:01.214Z,1.15
2019-05-25T19:00:01.720Z,1.46
2019-05-25T19:15:01.171Z,1.22
2019-05-25T19:30:01.545Z,1.29
2019-05-25T19:45:01.953Z,1.24
2019-05-25T20:00:01.399Z,1.29
2019-05-25T20:15:02.188Z,1.58
2019-05-25T20:30:01.546Z,1.34
2019-05-25T20:45:02.087Z,1.19
2019-05-25T21:00:01.507Z,1.24
2019-05-25T21:15:01.930Z,1.31
2019-05-25T21:30:01.299Z,1.26
2019-05-25T21:45:01.741Z,1.09
2019-05-25T22:00:02.145Z,1.17
2019-05-25T22:15:01.587Z,1.21
2019-05-25T22:30:02.008Z,1.45
2019-05-25T22:45:01.402Z,1.43
2019-05-25T23:00:01.855Z,1.36
2019-05-25T23:15:01.522Z,1.2
2019-05-25T23:30:01.963Z,1.18
2019-05-25T23:45:01.390Z,1.4
